Chinook, Montana
Current Conditions -  °F | °C
As of 7:53 PM on Wednesday 22 Oct 2014 (Local Time) from KHVR Reporting Station
Clear Clear  
Wind Chill: 51°   Ceiling: Unl
Heat Index: 51°   Visibility: 10mi
Dew Point: 35°   Wind: 13mph
Humidity: 54%   Direction: 220°SW
Pressure: 29.83"   Gusts: NA
Location:  48.59°N, 109.23°W
Report Text: KHVR 230153Z AUTO 22011KT 10SM CLR 11/02 A2983 RMK AO2 SLP109 T01060017
Loading
Personal Weather Stations






























Interactive Weather Map
Tropical Storm Tracking
New forecast layout! Learn more

10-Day Weather Forecast

Advertisements
Track Severe Weather on mobile